sensor_id;sensor_type;location;lat;lon;timestamp;P1;durP1;ratioP1;P2;durP2;ratioP2
16326;SDS011;34812;49.846;9.610;2024-02-26T00:02:56;4.13;;;1.80;;
16326;SDS011;34812;49.846;9.610;2024-02-26T00:08:00;2.47;;;2.27;;
16326;SDS011;34812;49.846;9.610;2024-02-26T00:13:02;4.00;;;2.73;;
16326;SDS011;34812;49.846;9.610;2024-02-26T00:18:05;2.30;;;2.20;;
16326;SDS011;34812;49.846;9.610;2024-02-26T00:23:08;4.00;;;2.50;;
16326;SDS011;34812;49.846;9.610;2024-02-26T00:28:10;1.97;;;1.87;;
16326;SDS011;34812;49.846;9.610;2024-02-26T00:33:14;2.23;;;2.03;;
16326;SDS011;34812;49.846;9.610;2024-02-26T00:38:17;2.57;;;2.37;;
16326;SDS011;34812;49.846;9.610;2024-02-26T00:43:19;3.30;;;3.03;;
16326;SDS011;34812;49.846;9.610;2024-02-26T00:48:21;4.67;;;2.80;;
16326;SDS011;34812;49.846;9.610;2024-02-26T00:53:27;2.80;;;2.60;;
16326;SDS011;34812;49.846;9.610;2024-02-26T00:58:29;4.60;;;2.23;;
16326;SDS011;34812;49.846;9.610;2024-02-26T01:03:31;2.43;;;2.33;;
16326;SDS011;34812;49.846;9.610;2024-02-26T01:08:35;2.53;;;2.33;;
16326;SDS011;34812;49.846;9.610;2024-02-26T01:13:37;2.63;;;2.40;;
16326;SDS011;34812;49.846;9.610;2024-02-26T01:18:39;1.80;;;1.70;;
16326;SDS011;34812;49.846;9.610;2024-02-26T01:23:43;3.07;;;2.63;;
16326;SDS011;34812;49.846;9.610;2024-02-26T01:28:45;1.80;;;1.70;;
16326;SDS011;34812;49.846;9.610;2024-02-26T01:33:47;2.27;;;2.07;;
16326;SDS011;34812;49.846;9.610;2024-02-26T01:38:50;4.47;;;2.27;;
16326;SDS011;34812;49.846;9.610;2024-02-26T01:43:52;3.73;;;2.40;;
16326;SDS011;34812;49.846;9.610;2024-02-26T01:48:54;1.97;;;1.80;;
16326;SDS011;34812;49.846;9.610;2024-02-26T01:53:58;2.80;;;2.30;;
16326;SDS011;34812;49.846;9.610;2024-02-26T01:59:01;2.57;;;1.87;;
16326;SDS011;34812;49.846;9.610;2024-02-26T02:04:04;2.20;;;2.00;;
16326;SDS011;34812;49.846;9.610;2024-02-26T02:09:07;1.87;;;1.77;;
16326;SDS011;34812;49.846;9.610;2024-02-26T02:14:10;4.10;;;2.20;;
16326;SDS011;34812;49.846;9.610;2024-02-26T02:19:12;2.43;;;2.27;;
16326;SDS011;34812;49.846;9.610;2024-02-26T02:24:15;1.70;;;1.40;;
16326;SDS011;34812;49.846;9.610;2024-02-26T02:29:17;2.27;;;1.83;;
16326;SDS011;34812;49.846;9.610;2024-02-26T02:34:19;3.27;;;2.20;;
16326;SDS011;34812;49.846;9.610;2024-02-26T02:39:24;1.90;;;1.67;;
16326;SDS011;34812;49.846;9.610;2024-02-26T02:44:26;2.53;;;1.80;;
16326;SDS011;34812;49.846;9.610;2024-02-26T02:49:28;1.60;;;1.50;;
16326;SDS011;34812;49.846;9.610;2024-02-26T02:54:31;2.07;;;1.83;;
16326;SDS011;34812;49.846;9.610;2024-02-26T02:59:33;1.77;;;1.53;;
16326;SDS011;34812;49.846;9.610;2024-02-26T03:04:35;2.30;;;1.97;;
16326;SDS011;34812;49.846;9.610;2024-02-26T03:09:39;2.13;;;1.87;;
16326;SDS011;34812;49.846;9.610;2024-02-26T03:14:41;2.13;;;1.87;;
16326;SDS011;34812;49.846;9.610;2024-02-26T03:19:43;2.13;;;1.90;;
16326;SDS011;34812;49.846;9.610;2024-02-26T03:24:48;2.00;;;1.80;;
16326;SDS011;34812;49.846;9.610;2024-02-26T03:29:50;1.83;;;1.73;;
16326;SDS011;34812;49.846;9.610;2024-02-26T03:34:52;1.57;;;1.53;;
16326;SDS011;34812;49.846;9.610;2024-02-26T03:39:57;1.93;;;1.77;;
16326;SDS011;34812;49.846;9.610;2024-02-26T03:45:01;1.77;;;1.50;;
16326;SDS011;34812;49.846;9.610;2024-02-26T03:50:03;1.50;;;1.50;;
16326;SDS011;34812;49.846;9.610;2024-02-26T03:55:07;1.57;;;1.47;;
16326;SDS011;34812;49.846;9.610;2024-02-26T04:00:10;2.47;;;2.30;;
16326;SDS011;34812;49.846;9.610;2024-02-26T04:05:12;1.27;;;1.27;;
16326;SDS011;34812;49.846;9.610;2024-02-26T04:10:16;2.07;;;1.97;;
16326;SDS011;34812;49.846;9.610;2024-02-26T04:15:18;1.57;;;1.50;;
16326;SDS011;34812;49.846;9.610;2024-02-26T04:20:20;1.50;;;1.40;;
16326;SDS011;34812;49.846;9.610;2024-02-26T04:25:24;1.20;;;1.13;;
16326;SDS011;34812;49.846;9.610;2024-02-26T04:30:26;1.40;;;1.30;;
16326;SDS011;34812;49.846;9.610;2024-02-26T04:35:28;1.40;;;1.30;;
16326;SDS011;34812;49.846;9.610;2024-02-26T04:40:32;2.17;;;1.83;;
16326;SDS011;34812;49.846;9.610;2024-02-26T04:45:34;4.40;;;2.87;;
16326;SDS011;34812;49.846;9.610;2024-02-26T04:50:36;5.53;;;2.50;;
16326;SDS011;34812;49.846;9.610;2024-02-26T04:55:40;2.60;;;2.40;;
16326;SDS011;34812;49.846;9.610;2024-02-26T05:00:42;1.73;;;1.63;;
16326;SDS011;34812;49.846;9.610;2024-02-26T05:05:44;1.60;;;1.50;;
16326;SDS011;34812;49.846;9.610;2024-02-26T05:10:47;1.40;;;1.30;;
16326;SDS011;34812;49.846;9.610;2024-02-26T05:15:49;2.23;;;2.03;;
16326;SDS011;34812;49.846;9.610;2024-02-26T05:20:52;1.60;;;1.50;;
16326;SDS011;34812;49.846;9.610;2024-02-26T05:25:55;1.57;;;1.40;;
16326;SDS011;34812;49.846;9.610;2024-02-26T05:30:58;1.47;;;1.37;;
16326;SDS011;34812;49.846;9.610;2024-02-26T05:36:00;2.00;;;1.83;;
16326;SDS011;34812;49.846;9.610;2024-02-26T05:41:05;2.73;;;1.30;;
16326;SDS011;34812;49.846;9.610;2024-02-26T05:46:08;1.60;;;1.50;;
16326;SDS011;34812;49.846;9.610;2024-02-26T05:51:10;1.50;;;1.40;;
16326;SDS011;34812;49.846;9.610;2024-02-26T05:56:13;1.40;;;1.30;;
16326;SDS011;34812;49.846;9.610;2024-02-26T06:01:16;2.03;;;1.50;;
16326;SDS011;34812;49.846;9.610;2024-02-26T06:06:18;1.70;;;1.47;;
16326;SDS011;34812;49.846;9.610;2024-02-26T06:11:24;1.90;;;1.80;;
16326;SDS011;34812;49.846;9.610;2024-02-26T06:16:26;1.87;;;1.77;;
16326;SDS011;34812;49.846;9.610;2024-02-26T06:21:28;2.17;;;1.80;;
16326;SDS011;34812;49.846;9.610;2024-02-26T06:26:32;1.60;;;1.50;;
16326;SDS011;34812;49.846;9.610;2024-02-26T06:31:34;1.90;;;1.70;;
16326;SDS011;34812;49.846;9.610;2024-02-26T06:36:36;1.33;;;1.33;;
16326;SDS011;34812;49.846;9.610;2024-02-26T06:41:39;1.50;;;1.40;;
16326;SDS011;34812;49.846;9.610;2024-02-26T06:46:41;1.93;;;1.83;;
16326;SDS011;34812;49.846;9.610;2024-02-26T06:51:43;1.80;;;1.63;;
16326;SDS011;34812;49.846;9.610;2024-02-26T06:56:47;1.70;;;1.60;;
16326;SDS011;34812;49.846;9.610;2024-02-26T07:01:49;1.70;;;1.60;;
16326;SDS011;34812;49.846;9.610;2024-02-26T07:06:51;2.20;;;2.00;;
16326;SDS011;34812;49.846;9.610;2024-02-26T07:11:54;2.60;;;2.07;;
16326;SDS011;34812;49.846;9.610;2024-02-26T07:16:57;2.17;;;2.00;;
16326;SDS011;34812;49.846;9.610;2024-02-26T07:21:59;2.07;;;1.47;;
16326;SDS011;34812;49.846;9.610;2024-02-26T07:27:03;2.13;;;1.97;;
16326;SDS011;34812;49.846;9.610;2024-02-26T07:32:05;1.50;;;1.40;;
16326;SDS011;34812;49.846;9.610;2024-02-26T07:37:08;3.07;;;2.27;;
16326;SDS011;34812;49.846;9.610;2024-02-26T07:42:11;2.47;;;1.77;;
16326;SDS011;34812;49.846;9.610;2024-02-26T07:47:13;2.47;;;1.57;;
16326;SDS011;34812;49.846;9.610;2024-02-26T07:52:15;1.60;;;1.40;;
16326;SDS011;34812;49.846;9.610;2024-02-26T07:57:19;2.27;;;1.90;;
16326;SDS011;34812;49.846;9.610;2024-02-26T08:02:21;3.83;;;2.40;;
16326;SDS011;34812;49.846;9.610;2024-02-26T08:07:23;5.17;;;2.57;;
16326;SDS011;34812;49.846;9.610;2024-02-26T08:12:27;2.10;;;1.90;;
16326;SDS011;34812;49.846;9.610;2024-02-26T08:17:29;2.63;;;2.43;;
16326;SDS011;34812;49.846;9.610;2024-02-26T08:22:32;1.83;;;1.73;;
16326;SDS011;34812;49.846;9.610;2024-02-26T08:27:36;4.83;;;2.60;;
16326;SDS011;34812;49.846;9.610;2024-02-26T08:32:38;2.00;;;1.80;;
16326;SDS011;34812;49.846;9.610;2024-02-26T08:37:43;2.33;;;1.93;;
16326;SDS011;34812;49.846;9.610;2024-02-26T08:42:47;3.70;;;2.33;;
16326;SDS011;34812;49.846;9.610;2024-02-26T08:47:49;3.43;;;2.03;;
16326;SDS011;34812;49.846;9.610;2024-02-26T08:52:51;3.47;;;2.97;;
16326;SDS011;34812;49.846;9.610;2024-02-26T08:57:54;3.10;;;1.80;;
16326;SDS011;34812;49.846;9.610;2024-02-26T09:02:56;4.07;;;2.57;;
16326;SDS011;34812;49.846;9.610;2024-02-26T09:07:59;5.13;;;2.13;;
16326;SDS011;34812;49.846;9.610;2024-02-26T09:13:03;3.33;;;2.30;;
16326;SDS011;34812;49.846;9.610;2024-02-26T09:18:05;3.13;;;2.80;;
16326;SDS011;34812;49.846;9.610;2024-02-26T09:23:07;2.07;;;1.93;;
16326;SDS011;34812;49.846;9.610;2024-02-26T09:28:11;5.00;;;2.27;;
16326;SDS011;34812;49.846;9.610;2024-02-26T09:33:15;3.13;;;2.17;;
16326;SDS011;34812;49.846;9.610;2024-02-26T09:38:17;5.00;;;2.70;;
16326;SDS011;34812;49.846;9.610;2024-02-26T09:43:21;3.70;;;2.47;;
16326;SDS011;34812;49.846;9.610;2024-02-26T09:48:24;3.17;;;2.17;;
16326;SDS011;34812;49.846;9.610;2024-02-26T09:53:26;3.87;;;2.60;;
16326;SDS011;34812;49.846;9.610;2024-02-26T09:58:32;4.93;;;2.33;;
16326;SDS011;34812;49.846;9.610;2024-02-26T10:03:37;3.57;;;2.20;;
16326;SDS011;34812;49.846;9.610;2024-02-26T10:08:40;3.90;;;2.33;;
16326;SDS011;34812;49.846;9.610;2024-02-26T10:13:45;5.37;;;2.50;;
16326;SDS011;34812;49.846;9.610;2024-02-26T10:18:47;6.30;;;2.90;;
16326;SDS011;34812;49.846;9.610;2024-02-26T10:23:49;3.83;;;2.43;;
16326;SDS011;34812;49.846;9.610;2024-02-26T10:28:53;3.23;;;2.20;;
16326;SDS011;34812;49.846;9.610;2024-02-26T10:34:01;6.53;;;3.17;;
16326;SDS011;34812;49.846;9.610;2024-02-26T10:39:03;3.07;;;2.70;;
16326;SDS011;34812;49.846;9.610;2024-02-26T10:44:09;3.80;;;2.40;;
16326;SDS011;34812;49.846;9.610;2024-02-26T10:49:13;5.53;;;2.00;;
16326;SDS011;34812;49.846;9.610;2024-02-26T10:54:17;1.90;;;1.80;;
16326;SDS011;34812;49.846;9.610;2024-02-26T10:59:22;3.33;;;2.70;;
16326;SDS011;34812;49.846;9.610;2024-02-26T11:04:24;3.40;;;2.40;;
16326;SDS011;34812;49.846;9.610;2024-02-26T11:09:27;4.07;;;2.13;;
16326;SDS011;34812;49.846;9.610;2024-02-26T11:14:31;3.93;;;2.10;;
16326;SDS011;34812;49.846;9.610;2024-02-26T11:19:34;2.50;;;1.97;;
16326;SDS011;34812;49.846;9.610;2024-02-26T11:24:37;3.67;;;2.17;;
16326;SDS011;34812;49.846;9.610;2024-02-26T11:29:43;3.67;;;2.33;;
16326;SDS011;34812;49.846;9.610;2024-02-26T11:34:46;2.87;;;2.20;;
16326;SDS011;34812;49.846;9.610;2024-02-26T11:39:48;2.53;;;1.67;;
16326;SDS011;34812;49.846;9.610;2024-02-26T11:44:54;2.90;;;2.07;;
16326;SDS011;34812;49.846;9.610;2024-02-26T11:50:00;2.80;;;2.13;;
16326;SDS011;34812;49.846;9.610;2024-02-26T11:55:31;5.33;;;2.70;;
16326;SDS011;34812;49.846;9.610;2024-02-26T12:00:34;2.77;;;1.93;;
16326;SDS011;34812;49.846;9.610;2024-02-26T12:05:36;2.00;;;1.70;;
16326;SDS011;34812;49.846;9.610;2024-02-26T12:10:39;3.17;;;1.70;;
16326;SDS011;34812;49.846;9.610;2024-02-26T12:15:44;2.20;;;1.80;;
16326;SDS011;34812;49.846;9.610;2024-02-26T12:20:47;5.07;;;2.10;;
16326;SDS011;34812;49.846;9.610;2024-02-26T12:25:59;3.73;;;1.93;;
16326;SDS011;34812;49.846;9.610;2024-02-26T12:31:03;1.88;;;1.63;;
16326;SDS011;34812;49.846;9.610;2024-02-26T12:36:06;2.47;;;1.95;;
16326;SDS011;34812;49.846;9.610;2024-02-26T12:41:08;2.40;;;1.55;;
16326;SDS011;34812;49.846;9.610;2024-02-26T12:46:11;3.65;;;2.28;;
16326;SDS011;34812;49.846;9.610;2024-02-26T12:51:16;3.20;;;2.20;;
16326;SDS011;34812;49.846;9.610;2024-02-26T12:56:18;2.33;;;1.63;;
16326;SDS011;34812;49.846;9.610;2024-02-26T13:01:23;3.20;;;1.70;;
16326;SDS011;34812;49.846;9.610;2024-02-26T13:06:25;4.65;;;1.92;;
16326;SDS011;34812;49.846;9.610;2024-02-26T13:11:28;1.48;;;1.38;;
16326;SDS011;34812;49.846;9.610;2024-02-26T13:16:32;2.85;;;1.63;;
16326;SDS011;34812;49.846;9.610;2024-02-26T13:21:34;4.85;;;1.65;;
16326;SDS011;34812;49.846;9.610;2024-02-26T13:26:37;2.03;;;1.45;;
16326;SDS011;34812;49.846;9.610;2024-02-26T13:31:40;2.13;;;1.88;;
16326;SDS011;34812;49.846;9.610;2024-02-26T13:36:43;3.03;;;1.65;;
16326;SDS011;34812;49.846;9.610;2024-02-26T13:41:45;2.33;;;1.48;;
16326;SDS011;34812;49.846;9.610;2024-02-26T13:46:48;2.15;;;1.20;;
16326;SDS011;34812;49.846;9.610;2024-02-26T13:51:50;4.35;;;1.38;;
16326;SDS011;34812;49.846;9.610;2024-02-26T13:56:53;1.15;;;1.05;;
16326;SDS011;34812;49.846;9.610;2024-02-26T14:01:56;1.50;;;1.30;;
16326;SDS011;34812;49.846;9.610;2024-02-26T14:06:58;2.05;;;1.10;;
16326;SDS011;34812;49.846;9.610;2024-02-26T14:12:00;3.60;;;1.40;;
16326;SDS011;34812;49.846;9.610;2024-02-26T14:17:04;2.00;;;1.48;;
16326;SDS011;34812;49.846;9.610;2024-02-26T14:22:06;1.60;;;1.45;;
16326;SDS011;34812;49.846;9.610;2024-02-26T14:27:08;2.72;;;1.40;;
16326;SDS011;34812;49.846;9.610;2024-02-26T14:32:13;2.08;;;1.25;;
16326;SDS011;34812;49.846;9.610;2024-02-26T14:37:15;1.33;;;1.23;;
16326;SDS011;34812;49.846;9.610;2024-02-26T14:42:17;1.13;;;1.00;;
16326;SDS011;34812;49.846;9.610;2024-02-26T14:47:21;2.25;;;1.40;;
16326;SDS011;34812;49.846;9.610;2024-02-26T14:52:23;1.98;;;1.00;;
16326;SDS011;34812;49.846;9.610;2024-02-26T14:57:26;7.75;;;1.20;;
16326;SDS011;34812;49.846;9.610;2024-02-26T15:02:29;1.13;;;1.02;;
16326;SDS011;34812;49.846;9.610;2024-02-26T15:07:31;1.45;;;1.20;;
16326;SDS011;34812;49.846;9.610;2024-02-26T15:12:33;1.05;;;0.98;;
16326;SDS011;34812;49.846;9.610;2024-02-26T15:17:37;4.03;;;1.40;;
16326;SDS011;34812;49.846;9.610;2024-02-26T15:22:39;1.30;;;1.20;;
16326;SDS011;34812;49.846;9.610;2024-02-26T15:27:41;4.00;;;1.45;;
16326;SDS011;34812;49.846;9.610;2024-02-26T15:32:44;3.67;;;1.27;;
16326;SDS011;34812;49.846;9.610;2024-02-26T15:37:47;1.77;;;1.20;;
16326;SDS011;34812;49.846;9.610;2024-02-26T15:42:49;2.77;;;1.80;;
16326;SDS011;34812;49.846;9.610;2024-02-26T15:47:52;1.83;;;1.27;;
16326;SDS011;34812;49.846;9.610;2024-02-26T15:52:54;1.67;;;1.30;;
16326;SDS011;34812;49.846;9.610;2024-02-26T15:57:58;1.70;;;1.23;;
16326;SDS011;34812;49.846;9.610;2024-02-26T16:03:01;2.47;;;1.67;;
16326;SDS011;34812;49.846;9.610;2024-02-26T16:08:05;1.70;;;1.30;;
16326;SDS011;34812;49.846;9.610;2024-02-26T16:13:07;2.57;;;1.40;;
16326;SDS011;34812;49.846;9.610;2024-02-26T16:18:11;1.83;;;1.10;;
16326;SDS011;34812;49.846;9.610;2024-02-26T16:23:13;1.80;;;1.37;;
16326;SDS011;34812;49.846;9.610;2024-02-26T16:28:16;1.37;;;1.17;;
16326;SDS011;34812;49.846;9.610;2024-02-26T16:33:19;2.87;;;1.43;;
16326;SDS011;34812;49.846;9.610;2024-02-26T16:38:22;2.03;;;1.40;;
16326;SDS011;34812;49.846;9.610;2024-02-26T16:43:25;2.67;;;1.30;;
16326;SDS011;34812;49.846;9.610;2024-02-26T16:48:28;2.23;;;1.10;;
16326;SDS011;34812;49.846;9.610;2024-02-26T16:53:30;2.13;;;1.37;;
16326;SDS011;34812;49.846;9.610;2024-02-26T16:58:33;4.33;;;1.60;;
16326;SDS011;34812;49.846;9.610;2024-02-26T17:03:37;1.67;;;1.30;;
16326;SDS011;34812;49.846;9.610;2024-02-26T17:08:40;1.70;;;1.57;;
16326;SDS011;34812;49.846;9.610;2024-02-26T17:13:42;2.67;;;1.60;;
16326;SDS011;34812;49.846;9.610;2024-02-26T17:18:45;1.67;;;1.57;;
16326;SDS011;34812;49.846;9.610;2024-02-26T17:23:47;2.10;;;1.77;;
16326;SDS011;34812;49.846;9.610;2024-02-26T17:28:49;3.10;;;2.40;;
16326;SDS011;34812;49.846;9.610;2024-02-26T17:33:53;3.43;;;2.17;;
16326;SDS011;34812;49.846;9.610;2024-02-26T17:38:55;3.10;;;2.33;;
16326;SDS011;34812;49.846;9.610;2024-02-26T17:43:58;5.63;;;2.73;;
16326;SDS011;34812;49.846;9.610;2024-02-26T17:49:01;3.27;;;2.53;;
16326;SDS011;34812;49.846;9.610;2024-02-26T17:54:03;4.53;;;2.63;;
16326;SDS011;34812;49.846;9.610;2024-02-26T17:59:05;4.13;;;2.23;;
16326;SDS011;34812;49.846;9.610;2024-02-26T18:04:10;4.03;;;2.50;;
16326;SDS011;34812;49.846;9.610;2024-02-26T18:09:12;2.17;;;2.00;;
16326;SDS011;34812;49.846;9.610;2024-02-26T18:14:14;2.30;;;2.10;;
16326;SDS011;34812;49.846;9.610;2024-02-26T18:19:18;7.07;;;3.67;;
16326;SDS011;34812;49.846;9.610;2024-02-26T18:24:20;3.67;;;3.13;;
16326;SDS011;34812;49.846;9.610;2024-02-26T18:29:22;4.53;;;2.60;;
16326;SDS011;34812;49.846;9.610;2024-02-26T18:34:25;12.93;;;6.93;;
16326;SDS011;34812;49.846;9.610;2024-02-26T18:39:27;11.13;;;4.37;;
16326;SDS011;34812;49.846;9.610;2024-02-26T18:44:30;5.17;;;3.17;;
16326;SDS011;34812;49.846;9.610;2024-02-26T18:49:36;4.37;;;2.67;;
16326;SDS011;34812;49.846;9.610;2024-02-26T18:54:39;3.17;;;2.07;;
16326;SDS011;34812;49.846;9.610;2024-02-26T18:59:43;2.70;;;2.47;;
16326;SDS011;34812;49.846;9.610;2024-02-26T19:04:47;2.30;;;1.87;;
16326;SDS011;34812;49.846;9.610;2024-02-26T19:09:49;2.53;;;2.20;;
16326;SDS011;34812;49.846;9.610;2024-02-26T19:14:52;2.60;;;2.30;;
16326;SDS011;34812;49.846;9.610;2024-02-26T19:19:56;3.47;;;2.17;;
16326;SDS011;34812;49.846;9.610;2024-02-26T19:24:58;3.43;;;2.63;;
16326;SDS011;34812;49.846;9.610;2024-02-26T19:30:00;3.43;;;2.70;;
16326;SDS011;34812;49.846;9.610;2024-02-26T19:35:05;4.17;;;3.60;;
16326;SDS011;34812;49.846;9.610;2024-02-26T19:40:09;3.80;;;2.77;;
16326;SDS011;34812;49.846;9.610;2024-02-26T19:45:11;4.97;;;2.70;;
16326;SDS011;34812;49.846;9.610;2024-02-26T19:50:15;6.20;;;2.73;;
16326;SDS011;34812;49.846;9.610;2024-02-26T19:55:17;4.53;;;2.87;;
16326;SDS011;34812;49.846;9.610;2024-02-26T20:00:21;4.43;;;2.80;;
16326;SDS011;34812;49.846;9.610;2024-02-26T20:05:25;2.80;;;2.27;;
16326;SDS011;34812;49.846;9.610;2024-02-26T20:10:27;7.27;;;3.93;;
16326;SDS011;34812;49.846;9.610;2024-02-26T20:15:29;6.07;;;4.03;;
16326;SDS011;34812;49.846;9.610;2024-02-26T20:20:32;8.30;;;5.33;;
16326;SDS011;34812;49.846;9.610;2024-02-26T20:25:34;4.17;;;2.93;;
16326;SDS011;34812;49.846;9.610;2024-02-26T20:30:36;5.57;;;3.13;;
16326;SDS011;34812;49.846;9.610;2024-02-26T20:35:40;2.60;;;2.27;;
16326;SDS011;34812;49.846;9.610;2024-02-26T20:40:42;3.50;;;2.63;;
16326;SDS011;34812;49.846;9.610;2024-02-26T20:45:44;7.17;;;3.63;;
16326;SDS011;34812;49.846;9.610;2024-02-26T20:50:50;11.33;;;5.47;;
16326;SDS011;34812;49.846;9.610;2024-02-26T20:55:52;4.20;;;3.67;;
16326;SDS011;34812;49.846;9.610;2024-02-26T21:00:55;7.53;;;4.10;;
16326;SDS011;34812;49.846;9.610;2024-02-26T21:05:58;7.53;;;4.17;;
16326;SDS011;34812;49.846;9.610;2024-02-26T21:11:01;8.90;;;3.60;;
16326;SDS011;34812;49.846;9.610;2024-02-26T21:16:04;5.50;;;4.20;;
16326;SDS011;34812;49.846;9.610;2024-02-26T21:21:09;14.37;;;7.33;;
16326;SDS011;34812;49.846;9.610;2024-02-26T21:26:13;8.87;;;6.50;;
16326;SDS011;34812;49.846;9.610;2024-02-26T21:31:16;7.10;;;4.73;;
16326;SDS011;34812;49.846;9.610;2024-02-26T21:36:19;6.20;;;4.23;;
16326;SDS011;34812;49.846;9.610;2024-02-26T21:41:21;12.47;;;4.50;;
16326;SDS011;34812;49.846;9.610;2024-02-26T21:46:23;8.73;;;5.60;;
16326;SDS011;34812;49.846;9.610;2024-02-26T21:51:27;6.27;;;4.50;;
16326;SDS011;34812;49.846;9.610;2024-02-26T21:56:29;12.60;;;7.60;;
16326;SDS011;34812;49.846;9.610;2024-02-26T22:01:31;7.90;;;4.83;;
16326;SDS011;34812;49.846;9.610;2024-02-26T22:06:34;8.17;;;3.80;;
16326;SDS011;34812;49.846;9.610;2024-02-26T22:11:37;9.33;;;4.30;;
16326;SDS011;34812;49.846;9.610;2024-02-26T22:16:39;5.37;;;3.67;;
16326;SDS011;34812;49.846;9.610;2024-02-26T22:21:43;6.37;;;4.93;;
16326;SDS011;34812;49.846;9.610;2024-02-26T22:26:45;7.03;;;3.80;;
16326;SDS011;34812;49.846;9.610;2024-02-26T22:31:47;4.47;;;3.87;;
16326;SDS011;34812;49.846;9.610;2024-02-26T22:36:53;6.77;;;3.43;;
16326;SDS011;34812;49.846;9.610;2024-02-26T22:41:55;7.60;;;4.37;;
16326;SDS011;34812;49.846;9.610;2024-02-26T22:47:00;6.37;;;4.53;;
16326;SDS011;34812;49.846;9.610;2024-02-26T22:52:03;6.50;;;4.53;;
16326;SDS011;34812;49.846;9.610;2024-02-26T22:57:06;6.27;;;4.03;;
16326;SDS011;34812;49.846;9.610;2024-02-26T23:02:08;10.03;;;4.23;;
16326;SDS011;34812;49.846;9.610;2024-02-26T23:07:11;7.57;;;4.63;;
16326;SDS011;34812;49.846;9.610;2024-02-26T23:12:14;4.43;;;3.80;;
16326;SDS011;34812;49.846;9.610;2024-02-26T23:17:16;8.07;;;5.30;;
16326;SDS011;34812;49.846;9.610;2024-02-26T23:22:19;12.83;;;7.43;;
16326;SDS011;34812;49.846;9.610;2024-02-26T23:27:21;10.27;;;6.00;;
16326;SDS011;34812;49.846;9.610;2024-02-26T23:32:23;7.90;;;5.67;;
16326;SDS011;34812;49.846;9.610;2024-02-26T23:37:27;9.17;;;6.00;;
16326;SDS011;34812;49.846;9.610;2024-02-26T23:42:29;6.87;;;5.03;;
16326;SDS011;34812;49.846;9.610;2024-02-26T23:47:31;5.23;;;4.17;;
16326;SDS011;34812;49.846;9.610;2024-02-26T23:52:34;7.07;;;4.00;;
16326;SDS011;34812;49.846;9.610;2024-02-26T23:57:36;7.73;;;4.50;;
